Hovedside
METAR-TAF:

METAR-TAF

Lufthavner :

Jeddah, Saudi-Arabia

breddegrad: 21-42N, lengdegrad: 039-11E, høyde over havet: 15 m

Gjeldene værobservasjon

Denne rapporten ble laget for 37 minutter siden, klokken 19:00 UTC
Vind 4 kt fra Nord
Temperatur 23°C
Luftfuktighet 65%
Trykk 1014 hPa
Sikt 10 km eller mer
Få skyer i en høyde av 3000 ft

METAR: OEJN 181900Z 01004KT 9999 FEW030 23/16 Q1014 NOSIG

Tid: 22:37 (19:37 UTC)

Varsel

Denne rapporten ble laget for 2 timer og 37 minutter siden, klokken 17:00 UTC
Varsel gyldig fra 18. klokken 18 UTC til 19. klokken 24 UTC
Vind 10 kt fra Nord
Sikt: 8000 m
Få skyer i en høyde av 3000 ft
Blir
fra 19. klokken 06 UTC til 19. klokken 08 UTC
Vind 6 kt fra Vest-nordvest med vindkast opp mot 16 kt

TAF: OEJN 181700Z 1818/1924 36010KT 8000 FEW030 BECMG 1906/1908 30006G16KT

Værobservasjoner og værvarsel for over 4000 flyplasser (METAR- og TAF-rapporter).

Tilgjengelige stasjoner er representert av de røde og gule prikkene på kartet.

Hold musepekeren over prikken for å se navnet på stasjonen.

Klikk så for å se værobservasjoner og -varsler.

For å forandre kartet kan du klikke på den grønne knappen med svart kryss for å zoome inn, på den grønne knappen med strek for å zoome ut, eller på de grønne pilene for å se tilstøtende kart.


METAR-TAF: